Contreras, New Mexico
Current Conditions -  °F | °C
As of 5:35 PM on Sunday 21 Dec 2014 (Local Time) from KONM Reporting Station
Clear Clear  
Wind Chill: 47°   Ceiling: Unl
Heat Index: 47°   Visibility: 10mi
Dew Point: 26°   Wind: 0mph
Humidity: 44%   Direction: NA
Pressure: 29.92"   Gusts: NA
Location:  34.3166°N, 106.801°W
Report Text: KONM 220035Z AUTO 00000KT 10SM CLR 09/M03 A2992 RMK AO2 T00861032
Loading
Personal Weather Stations






























Interactive Weather Map New forecast layout! Learn more

10-Day Weather Forecast

Advertisements
Track Severe Weather on mobile